sensor_id;sensor_type;location;lat;lon;timestamp;P1;durP1;ratioP1;P2;durP2;ratioP2
22068;SDS011;13887;57.196;-2.100;2023-02-01T00:00:30;12.87;;;12.47;;
22068;SDS011;13887;57.196;-2.100;2023-02-01T00:03:00;13.13;;;12.73;;
22068;SDS011;13887;57.196;-2.100;2023-02-01T00:05:27;12.60;;;12.20;;
22068;SDS011;13887;57.196;-2.100;2023-02-01T00:07:54;12.70;;;12.30;;
22068;SDS011;13887;57.196;-2.100;2023-02-01T00:10:21;12.70;;;12.30;;
22068;SDS011;13887;57.196;-2.100;2023-02-01T00:12:48;12.70;;;12.30;;
22068;SDS011;13887;57.196;-2.100;2023-02-01T00:15:15;14.07;;;13.50;;
22068;SDS011;13887;57.196;-2.100;2023-02-01T00:17:42;13.00;;;12.60;;
22068;SDS011;13887;57.196;-2.100;2023-02-01T00:20:09;12.70;;;12.30;;
22068;SDS011;13887;57.196;-2.100;2023-02-01T00:22:37;12.73;;;12.33;;
22068;SDS011;13887;57.196;-2.100;2023-02-01T00:25:03;12.70;;;12.30;;
22068;SDS011;13887;57.196;-2.100;2023-02-01T00:27:31;13.00;;;12.60;;
22068;SDS011;13887;57.196;-2.100;2023-02-01T00:29:58;13.20;;;12.80;;
22068;SDS011;13887;57.196;-2.100;2023-02-01T00:32:25;12.97;;;12.57;;
22068;SDS011;13887;57.196;-2.100;2023-02-01T00:34:52;12.97;;;12.57;;
22068;SDS011;13887;57.196;-2.100;2023-02-01T00:37:19;13.03;;;12.63;;
22068;SDS011;13887;57.196;-2.100;2023-02-01T00:39:46;13.10;;;12.70;;
22068;SDS011;13887;57.196;-2.100;2023-02-01T00:42:13;13.13;;;12.73;;
22068;SDS011;13887;57.196;-2.100;2023-02-01T00:44:40;12.77;;;12.37;;
22068;SDS011;13887;57.196;-2.100;2023-02-01T00:47:07;12.83;;;12.43;;
22068;SDS011;13887;57.196;-2.100;2023-02-01T00:49:34;12.97;;;12.57;;
22068;SDS011;13887;57.196;-2.100;2023-02-01T00:52:01;13.00;;;12.60;;
22068;SDS011;13887;57.196;-2.100;2023-02-01T00:54:28;12.77;;;12.37;;
22068;SDS011;13887;57.196;-2.100;2023-02-01T00:56:55;12.67;;;12.27;;
22068;SDS011;13887;57.196;-2.100;2023-02-01T00:59:22;13.10;;;12.70;;
22068;SDS011;13887;57.196;-2.100;2023-02-01T01:01:49;12.33;;;11.93;;
22068;SDS011;13887;57.196;-2.100;2023-02-01T01:04:16;13.07;;;12.67;;
22068;SDS011;13887;57.196;-2.100;2023-02-01T01:06:43;13.40;;;12.90;;
22068;SDS011;13887;57.196;-2.100;2023-02-01T01:09:11;13.10;;;12.70;;
22068;SDS011;13887;57.196;-2.100;2023-02-01T01:11:38;13.33;;;12.87;;
22068;SDS011;13887;57.196;-2.100;2023-02-01T01:14:05;13.50;;;13.00;;
22068;SDS011;13887;57.196;-2.100;2023-02-01T01:16:34;12.73;;;12.33;;
22068;SDS011;13887;57.196;-2.100;2023-02-01T01:19:02;13.07;;;12.67;;
22068;SDS011;13887;57.196;-2.100;2023-02-01T01:21:29;13.10;;;12.70;;
22068;SDS011;13887;57.196;-2.100;2023-02-01T01:23:56;13.17;;;12.77;;
22068;SDS011;13887;57.196;-2.100;2023-02-01T01:26:25;13.70;;;13.20;;
22068;SDS011;13887;57.196;-2.100;2023-02-01T01:28:54;13.10;;;12.70;;
22068;SDS011;13887;57.196;-2.100;2023-02-01T01:31:22;12.67;;;12.27;;
22068;SDS011;13887;57.196;-2.100;2023-02-01T01:33:53;13.20;;;12.80;;
22068;SDS011;13887;57.196;-2.100;2023-02-01T01:36:23;13.10;;;12.70;;
22068;SDS011;13887;57.196;-2.100;2023-02-01T01:38:50;12.93;;;12.53;;
22068;SDS011;13887;57.196;-2.100;2023-02-01T01:41:19;13.00;;;12.60;;
22068;SDS011;13887;57.196;-2.100;2023-02-01T01:43:57;12.90;;;12.50;;
22068;SDS011;13887;57.196;-2.100;2023-02-01T01:46:27;13.13;;;12.73;;
22068;SDS011;13887;57.196;-2.100;2023-02-01T01:49:05;12.90;;;12.50;;
22068;SDS011;13887;57.196;-2.100;2023-02-01T01:51:45;13.07;;;12.67;;
22068;SDS011;13887;57.196;-2.100;2023-02-01T01:54:29;13.10;;;12.70;;
22068;SDS011;13887;57.196;-2.100;2023-02-01T01:57:01;13.00;;;12.60;;
22068;SDS011;13887;57.196;-2.100;2023-02-01T01:59:34;13.00;;;12.60;;
22068;SDS011;13887;57.196;-2.100;2023-02-01T02:02:05;12.90;;;12.50;;
22068;SDS011;13887;57.196;-2.100;2023-02-01T02:04:32;12.93;;;12.53;;
22068;SDS011;13887;57.196;-2.100;2023-02-01T02:07:02;13.10;;;12.70;;
22068;SDS011;13887;57.196;-2.100;2023-02-01T02:09:31;12.93;;;12.53;;
22068;SDS011;13887;57.196;-2.100;2023-02-01T02:11:58;13.20;;;12.80;;
22068;SDS011;13887;57.196;-2.100;2023-02-01T02:14:26;13.47;;;12.97;;
22068;SDS011;13887;57.196;-2.100;2023-02-01T02:28:22;12.93;;;12.53;;
22068;SDS011;13887;57.196;-2.100;2023-02-01T02:53:59;12.87;;;12.47;;
22068;SDS011;13887;57.196;-2.100;2023-02-01T02:56:46;12.70;;;12.30;;
22068;SDS011;13887;57.196;-2.100;2023-02-01T02:59:33;12.67;;;12.27;;
22068;SDS011;13887;57.196;-2.100;2023-02-01T03:02:22;12.23;;;11.83;;
22068;SDS011;13887;57.196;-2.100;2023-02-01T03:05:08;12.90;;;12.50;;
22068;SDS011;13887;57.196;-2.100;2023-02-01T03:10:18;12.90;;;12.50;;
22068;SDS011;13887;57.196;-2.100;2023-02-01T03:13:53;13.40;;;12.90;;
22068;SDS011;13887;57.196;-2.100;2023-02-01T03:16:13;12.80;;;12.40;;
22068;SDS011;13887;57.196;-2.100;2023-02-01T03:21:38;12.40;;;12.00;;
22068;SDS011;13887;57.196;-2.100;2023-02-01T03:24:09;12.47;;;12.07;;
22068;SDS011;13887;57.196;-2.100;2023-02-01T03:26:41;12.77;;;12.37;;
22068;SDS011;13887;57.196;-2.100;2023-02-01T03:29:17;12.73;;;12.33;;
22068;SDS011;13887;57.196;-2.100;2023-02-01T03:31:47;12.80;;;12.40;;
22068;SDS011;13887;57.196;-2.100;2023-02-01T03:34:15;12.90;;;12.50;;
22068;SDS011;13887;57.196;-2.100;2023-02-01T03:36:48;12.30;;;11.90;;
22068;SDS011;13887;57.196;-2.100;2023-02-01T03:42:16;13.10;;;12.70;;
22068;SDS011;13887;57.196;-2.100;2023-02-01T03:45:07;13.00;;;12.60;;
22068;SDS011;13887;57.196;-2.100;2023-02-01T03:47:55;12.83;;;12.43;;
22068;SDS011;13887;57.196;-2.100;2023-02-01T03:50:27;12.73;;;12.33;;
22068;SDS011;13887;57.196;-2.100;2023-02-01T03:52:58;13.00;;;12.60;;
22068;SDS011;13887;57.196;-2.100;2023-02-01T03:55:33;12.93;;;12.53;;
22068;SDS011;13887;57.196;-2.100;2023-02-01T03:58:21;13.37;;;12.87;;
22068;SDS011;13887;57.196;-2.100;2023-02-01T04:00:51;13.13;;;12.70;;
22068;SDS011;13887;57.196;-2.100;2023-02-01T04:03:22;12.90;;;12.50;;
22068;SDS011;13887;57.196;-2.100;2023-02-01T04:05:49;13.50;;;13.00;;
22068;SDS011;13887;57.196;-2.100;2023-02-01T04:08:18;12.63;;;12.23;;
22068;SDS011;13887;57.196;-2.100;2023-02-01T04:10:46;13.07;;;12.67;;
22068;SDS011;13887;57.196;-2.100;2023-02-01T04:13:13;13.07;;;12.67;;
22068;SDS011;13887;57.196;-2.100;2023-02-01T04:15:41;13.37;;;12.87;;
22068;SDS011;13887;57.196;-2.100;2023-02-01T04:18:08;12.80;;;12.40;;
22068;SDS011;13887;57.196;-2.100;2023-02-01T04:20:35;13.10;;;12.70;;
22068;SDS011;13887;57.196;-2.100;2023-02-01T04:23:02;13.23;;;12.73;;
22068;SDS011;13887;57.196;-2.100;2023-02-01T04:25:29;13.23;;;12.73;;
22068;SDS011;13887;57.196;-2.100;2023-02-01T04:27:56;13.10;;;12.70;;
22068;SDS011;13887;57.196;-2.100;2023-02-01T04:30:23;13.40;;;12.90;;
22068;SDS011;13887;57.196;-2.100;2023-02-01T04:32:50;13.00;;;12.60;;
22068;SDS011;13887;57.196;-2.100;2023-02-01T04:35:17;13.37;;;12.87;;
22068;SDS011;13887;57.196;-2.100;2023-02-01T04:37:44;12.70;;;12.30;;
22068;SDS011;13887;57.196;-2.100;2023-02-01T04:40:11;13.00;;;12.60;;
22068;SDS011;13887;57.196;-2.100;2023-02-01T04:42:38;13.50;;;13.00;;
22068;SDS011;13887;57.196;-2.100;2023-02-01T04:45:05;12.93;;;12.53;;
22068;SDS011;13887;57.196;-2.100;2023-02-01T04:47:33;13.10;;;12.70;;
22068;SDS011;13887;57.196;-2.100;2023-02-01T04:50:00;13.17;;;12.73;;
22068;SDS011;13887;57.196;-2.100;2023-02-01T04:52:27;13.00;;;12.60;;
22068;SDS011;13887;57.196;-2.100;2023-02-01T04:54:54;13.03;;;12.63;;
22068;SDS011;13887;57.196;-2.100;2023-02-01T04:57:24;12.80;;;12.40;;
22068;SDS011;13887;57.196;-2.100;2023-02-01T04:59:52;13.00;;;12.60;;
22068;SDS011;13887;57.196;-2.100;2023-02-01T05:02:19;13.80;;;13.30;;
22068;SDS011;13887;57.196;-2.100;2023-02-01T05:04:46;13.30;;;12.80;;
22068;SDS011;13887;57.196;-2.100;2023-02-01T05:07:13;12.77;;;12.37;;
22068;SDS011;13887;57.196;-2.100;2023-02-01T05:09:40;13.30;;;12.80;;
22068;SDS011;13887;57.196;-2.100;2023-02-01T05:12:07;13.27;;;12.77;;
22068;SDS011;13887;57.196;-2.100;2023-02-01T05:14:54;13.00;;;12.60;;
22068;SDS011;13887;57.196;-2.100;2023-02-01T05:17:21;13.50;;;13.00;;
22068;SDS011;13887;57.196;-2.100;2023-02-01T05:19:48;13.43;;;12.93;;
22068;SDS011;13887;57.196;-2.100;2023-02-01T05:22:15;13.00;;;12.60;;
22068;SDS011;13887;57.196;-2.100;2023-02-01T05:24:42;13.47;;;12.97;;
22068;SDS011;13887;57.196;-2.100;2023-02-01T05:27:11;13.60;;;13.10;;
22068;SDS011;13887;57.196;-2.100;2023-02-01T05:29:38;13.00;;;12.60;;
22068;SDS011;13887;57.196;-2.100;2023-02-01T05:32:04;13.83;;;13.33;;
22068;SDS011;13887;57.196;-2.100;2023-02-01T05:34:47;13.90;;;13.40;;
22068;SDS011;13887;57.196;-2.100;2023-02-01T05:37:14;13.60;;;13.10;;
22068;SDS011;13887;57.196;-2.100;2023-02-01T05:39:41;13.67;;;13.17;;
22068;SDS011;13887;57.196;-2.100;2023-02-01T05:42:09;13.77;;;13.27;;
22068;SDS011;13887;57.196;-2.100;2023-02-01T05:44:36;13.30;;;12.80;;
22068;SDS011;13887;57.196;-2.100;2023-02-01T05:47:03;13.40;;;12.90;;
22068;SDS011;13887;57.196;-2.100;2023-02-01T05:49:30;13.40;;;12.90;;
22068;SDS011;13887;57.196;-2.100;2023-02-01T05:51:57;13.53;;;13.03;;
22068;SDS011;13887;57.196;-2.100;2023-02-01T05:54:25;13.23;;;12.77;;
22068;SDS011;13887;57.196;-2.100;2023-02-01T05:56:53;13.60;;;13.10;;
22068;SDS011;13887;57.196;-2.100;2023-02-01T05:59:20;13.10;;;12.70;;
22068;SDS011;13887;57.196;-2.100;2023-02-01T06:01:47;13.97;;;13.47;;
22068;SDS011;13887;57.196;-2.100;2023-02-01T06:04:14;13.10;;;12.70;;
22068;SDS011;13887;57.196;-2.100;2023-02-01T06:06:41;13.60;;;13.10;;
22068;SDS011;13887;57.196;-2.100;2023-02-01T06:09:08;13.77;;;13.27;;
22068;SDS011;13887;57.196;-2.100;2023-02-01T06:11:34;13.80;;;13.30;;
22068;SDS011;13887;57.196;-2.100;2023-02-01T06:14:01;13.77;;;13.27;;
22068;SDS011;13887;57.196;-2.100;2023-02-01T06:16:28;13.60;;;13.10;;
22068;SDS011;13887;57.196;-2.100;2023-02-01T06:18:55;13.17;;;12.77;;
22068;SDS011;13887;57.196;-2.100;2023-02-01T06:21:22;13.70;;;13.20;;
22068;SDS011;13887;57.196;-2.100;2023-02-01T06:23:53;13.70;;;13.20;;
22068;SDS011;13887;57.196;-2.100;2023-02-01T06:26:21;13.80;;;13.30;;
22068;SDS011;13887;57.196;-2.100;2023-02-01T06:28:48;13.73;;;13.23;;
22068;SDS011;13887;57.196;-2.100;2023-02-01T06:31:15;13.50;;;13.00;;
22068;SDS011;13887;57.196;-2.100;2023-02-01T06:33:43;13.60;;;13.10;;
22068;SDS011;13887;57.196;-2.100;2023-02-01T06:36:10;13.20;;;12.80;;
22068;SDS011;13887;57.196;-2.100;2023-02-01T06:38:39;13.40;;;12.90;;
22068;SDS011;13887;57.196;-2.100;2023-02-01T06:41:06;13.40;;;12.90;;
22068;SDS011;13887;57.196;-2.100;2023-02-01T06:43:33;13.40;;;12.90;;
22068;SDS011;13887;57.196;-2.100;2023-02-01T06:46:04;13.07;;;12.67;;
22068;SDS011;13887;57.196;-2.100;2023-02-01T06:48:33;13.27;;;12.80;;
22068;SDS011;13887;57.196;-2.100;2023-02-01T06:51:00;13.00;;;12.60;;
22068;SDS011;13887;57.196;-2.100;2023-02-01T06:53:27;13.50;;;13.00;;
22068;SDS011;13887;57.196;-2.100;2023-02-01T06:55:55;13.77;;;13.27;;
22068;SDS011;13887;57.196;-2.100;2023-02-01T06:58:27;16.70;;;15.87;;
22068;SDS011;13887;57.196;-2.100;2023-02-01T07:01:03;13.90;;;13.40;;
22068;SDS011;13887;57.196;-2.100;2023-02-01T07:03:32;13.97;;;13.47;;
22068;SDS011;13887;57.196;-2.100;2023-02-01T07:05:59;13.17;;;12.77;;
22068;SDS011;13887;57.196;-2.100;2023-02-01T07:08:27;13.10;;;12.70;;
22068;SDS011;13887;57.196;-2.100;2023-02-01T07:10:55;13.20;;;12.80;;
22068;SDS011;13887;57.196;-2.100;2023-02-01T07:13:23;13.60;;;13.10;;
22068;SDS011;13887;57.196;-2.100;2023-02-01T07:15:52;13.70;;;13.20;;
22068;SDS011;13887;57.196;-2.100;2023-02-01T07:18:19;13.53;;;13.03;;
22068;SDS011;13887;57.196;-2.100;2023-02-01T07:20:49;14.07;;;13.57;;
22068;SDS011;13887;57.196;-2.100;2023-02-01T07:23:17;13.57;;;13.07;;
22068;SDS011;13887;57.196;-2.100;2023-02-01T07:25:45;13.80;;;13.30;;
22068;SDS011;13887;57.196;-2.100;2023-02-01T07:28:13;14.00;;;13.50;;
22068;SDS011;13887;57.196;-2.100;2023-02-01T07:30:40;13.73;;;13.23;;
22068;SDS011;13887;57.196;-2.100;2023-02-01T07:33:08;13.70;;;13.20;;
22068;SDS011;13887;57.196;-2.100;2023-02-01T07:35:35;13.53;;;13.03;;
22068;SDS011;13887;57.196;-2.100;2023-02-01T07:38:02;13.43;;;13.00;;
22068;SDS011;13887;57.196;-2.100;2023-02-01T07:40:28;13.67;;;13.17;;
22068;SDS011;13887;57.196;-2.100;2023-02-01T07:42:57;14.10;;;13.60;;
22068;SDS011;13887;57.196;-2.100;2023-02-01T07:45:23;13.80;;;13.30;;
22068;SDS011;13887;57.196;-2.100;2023-02-01T07:47:51;13.87;;;13.37;;
22068;SDS011;13887;57.196;-2.100;2023-02-01T07:50:19;13.13;;;12.73;;
22068;SDS011;13887;57.196;-2.100;2023-02-01T07:52:47;13.07;;;12.67;;
22068;SDS011;13887;57.196;-2.100;2023-02-01T07:55:14;13.23;;;12.83;;
22068;SDS011;13887;57.196;-2.100;2023-02-01T07:57:41;13.50;;;13.00;;
22068;SDS011;13887;57.196;-2.100;2023-02-01T08:00:08;13.50;;;13.00;;
22068;SDS011;13887;57.196;-2.100;2023-02-01T08:02:57;13.43;;;12.97;;
22068;SDS011;13887;57.196;-2.100;2023-02-01T08:05:24;12.57;;;12.17;;
22068;SDS011;13887;57.196;-2.100;2023-02-01T08:07:52;13.20;;;12.80;;
22068;SDS011;13887;57.196;-2.100;2023-02-01T08:10:19;13.00;;;12.60;;
22068;SDS011;13887;57.196;-2.100;2023-02-01T08:12:46;12.80;;;12.40;;
22068;SDS011;13887;57.196;-2.100;2023-02-01T08:15:15;13.10;;;12.70;;
22068;SDS011;13887;57.196;-2.100;2023-02-01T08:17:48;12.80;;;12.40;;
22068;SDS011;13887;57.196;-2.100;2023-02-01T08:20:17;12.93;;;12.53;;
22068;SDS011;13887;57.196;-2.100;2023-02-01T08:22:45;12.70;;;12.30;;
22068;SDS011;13887;57.196;-2.100;2023-02-01T08:25:12;12.43;;;12.03;;
22068;SDS011;13887;57.196;-2.100;2023-02-01T08:27:39;12.57;;;12.17;;
22068;SDS011;13887;57.196;-2.100;2023-02-01T08:30:06;12.53;;;12.13;;
22068;SDS011;13887;57.196;-2.100;2023-02-01T08:32:35;12.50;;;12.10;;
22068;SDS011;13887;57.196;-2.100;2023-02-01T08:35:02;12.90;;;12.50;;
22068;SDS011;13887;57.196;-2.100;2023-02-01T08:37:30;12.53;;;12.13;;
22068;SDS011;13887;57.196;-2.100;2023-02-01T08:39:57;12.40;;;12.00;;
22068;SDS011;13887;57.196;-2.100;2023-02-01T08:42:24;12.60;;;12.20;;
22068;SDS011;13887;57.196;-2.100;2023-02-01T08:45:10;12.63;;;12.23;;
22068;SDS011;13887;57.196;-2.100;2023-02-01T08:47:37;12.73;;;12.33;;
22068;SDS011;13887;57.196;-2.100;2023-02-01T08:50:04;12.27;;;11.87;;
22068;SDS011;13887;57.196;-2.100;2023-02-01T08:52:31;12.23;;;11.83;;
22068;SDS011;13887;57.196;-2.100;2023-02-01T08:54:58;12.40;;;12.00;;
22068;SDS011;13887;57.196;-2.100;2023-02-01T08:57:25;12.50;;;12.10;;
22068;SDS011;13887;57.196;-2.100;2023-02-01T08:59:53;13.37;;;12.87;;
22068;SDS011;13887;57.196;-2.100;2023-02-01T09:02:20;12.43;;;12.03;;
22068;SDS011;13887;57.196;-2.100;2023-02-01T09:04:47;12.47;;;12.07;;
22068;SDS011;13887;57.196;-2.100;2023-02-01T09:07:14;12.20;;;11.80;;
22068;SDS011;13887;57.196;-2.100;2023-02-01T09:09:43;12.37;;;11.97;;
22068;SDS011;13887;57.196;-2.100;2023-02-01T09:12:11;12.43;;;12.03;;
22068;SDS011;13887;57.196;-2.100;2023-02-01T09:14:38;12.40;;;12.00;;
22068;SDS011;13887;57.196;-2.100;2023-02-01T09:17:05;12.33;;;11.93;;
22068;SDS011;13887;57.196;-2.100;2023-02-01T09:19:32;12.60;;;12.20;;
22068;SDS011;13887;57.196;-2.100;2023-02-01T09:21:59;12.20;;;11.80;;
22068;SDS011;13887;57.196;-2.100;2023-02-01T09:24:26;12.30;;;11.90;;
22068;SDS011;13887;57.196;-2.100;2023-02-01T09:26:53;11.87;;;11.47;;
22068;SDS011;13887;57.196;-2.100;2023-02-01T09:29:21;12.13;;;11.73;;
22068;SDS011;13887;57.196;-2.100;2023-02-01T09:31:47;12.00;;;11.60;;
22068;SDS011;13887;57.196;-2.100;2023-02-01T09:34:28;11.90;;;11.50;;
22068;SDS011;13887;57.196;-2.100;2023-02-01T09:36:56;11.90;;;11.50;;
22068;SDS011;13887;57.196;-2.100;2023-02-01T09:39:23;11.77;;;11.37;;
22068;SDS011;13887;57.196;-2.100;2023-02-01T09:47:12;12.20;;;11.80;;
22068;SDS011;13887;57.196;-2.100;2023-02-01T09:49:52;12.60;;;12.20;;
22068;SDS011;13887;57.196;-2.100;2023-02-01T09:52:40;12.13;;;11.73;;
22068;SDS011;13887;57.196;-2.100;2023-02-01T09:55:16;12.30;;;11.90;;
22068;SDS011;13887;57.196;-2.100;2023-02-01T10:00:23;11.93;;;11.53;;
22068;SDS011;13887;57.196;-2.100;2023-02-01T10:02:54;12.23;;;11.83;;
22068;SDS011;13887;57.196;-2.100;2023-02-01T10:08:24;12.40;;;12.00;;
22068;SDS011;13887;57.196;-2.100;2023-02-01T10:19:58;12.27;;;11.87;;
22068;SDS011;13887;57.196;-2.100;2023-02-01T10:25:36;12.70;;;12.30;;
22068;SDS011;13887;57.196;-2.100;2023-02-01T10:28:16;11.97;;;11.57;;
22068;SDS011;13887;57.196;-2.100;2023-02-01T10:30:45;12.57;;;12.17;;
22068;SDS011;13887;57.196;-2.100;2023-02-01T10:33:22;12.50;;;12.10;;
22068;SDS011;13887;57.196;-2.100;2023-02-01T10:35:53;12.17;;;11.77;;
22068;SDS011;13887;57.196;-2.100;2023-02-01T10:38:27;12.70;;;12.30;;
22068;SDS011;13887;57.196;-2.100;2023-02-01T10:40:59;12.60;;;12.20;;
22068;SDS011;13887;57.196;-2.100;2023-02-01T10:43:29;12.60;;;12.20;;
22068;SDS011;13887;57.196;-2.100;2023-02-01T10:45:57;12.13;;;11.73;;
22068;SDS011;13887;57.196;-2.100;2023-02-01T10:48:24;12.20;;;11.80;;
22068;SDS011;13887;57.196;-2.100;2023-02-01T10:56:18;11.70;;;11.30;;
22068;SDS011;13887;57.196;-2.100;2023-02-01T10:58:51;11.10;;;10.80;;
22068;SDS011;13887;57.196;-2.100;2023-02-01T11:01:37;11.13;;;10.80;;
22068;SDS011;13887;57.196;-2.100;2023-02-01T11:04:09;11.40;;;11.00;;
22068;SDS011;13887;57.196;-2.100;2023-02-01T11:06:40;11.87;;;11.47;;
22068;SDS011;13887;57.196;-2.100;2023-02-01T11:17:51;11.60;;;11.20;;
22068;SDS011;13887;57.196;-2.100;2023-02-01T11:20:00;11.47;;;11.07;;
22068;SDS011;13887;57.196;-2.100;2023-02-01T11:22:30;11.80;;;11.40;;
22068;SDS011;13887;57.196;-2.100;2023-02-01T11:24:58;12.10;;;11.70;;
22068;SDS011;13887;57.196;-2.100;2023-02-01T11:27:28;11.73;;;11.33;;
22068;SDS011;13887;57.196;-2.100;2023-02-01T11:29:57;11.20;;;10.87;;
22068;SDS011;13887;57.196;-2.100;2023-02-01T11:32:28;11.77;;;11.37;;
22068;SDS011;13887;57.196;-2.100;2023-02-01T11:34:59;11.57;;;11.17;;
22068;SDS011;13887;57.196;-2.100;2023-02-01T11:37:34;11.53;;;11.13;;
22068;SDS011;13887;57.196;-2.100;2023-02-01T11:40:22;11.40;;;11.00;;
22068;SDS011;13887;57.196;-2.100;2023-02-01T11:42:54;11.93;;;11.53;;
22068;SDS011;13887;57.196;-2.100;2023-02-01T11:45:30;11.70;;;11.30;;
22068;SDS011;13887;57.196;-2.100;2023-02-01T11:48:00;11.73;;;11.33;;
22068;SDS011;13887;57.196;-2.100;2023-02-01T11:50:29;11.30;;;10.90;;
22068;SDS011;13887;57.196;-2.100;2023-02-01T11:55:56;11.77;;;11.37;;
22068;SDS011;13887;57.196;-2.100;2023-02-01T11:59:07;11.73;;;11.33;;
22068;SDS011;13887;57.196;-2.100;2023-02-01T12:01:50;11.07;;;10.70;;
22068;SDS011;13887;57.196;-2.100;2023-02-01T12:10:00;11.60;;;11.20;;
22068;SDS011;13887;57.196;-2.100;2023-02-01T12:18:44;11.87;;;11.47;;
22068;SDS011;13887;57.196;-2.100;2023-02-01T12:35:03;11.07;;;10.77;;
22068;SDS011;13887;57.196;-2.100;2023-02-01T12:37:51;11.03;;;10.73;;
22068;SDS011;13887;57.196;-2.100;2023-02-01T12:40:43;11.63;;;11.23;;
22068;SDS011;13887;57.196;-2.100;2023-02-01T12:43:21;11.57;;;11.17;;
22068;SDS011;13887;57.196;-2.100;2023-02-01T12:46:05;11.73;;;11.33;;
22068;SDS011;13887;57.196;-2.100;2023-02-01T12:48:38;11.73;;;11.33;;
22068;SDS011;13887;57.196;-2.100;2023-02-01T12:51:31;11.80;;;11.40;;
22068;SDS011;13887;57.196;-2.100;2023-02-01T12:54:13;11.57;;;11.17;;
22068;SDS011;13887;57.196;-2.100;2023-02-01T13:07:41;11.67;;;11.27;;
22068;SDS011;13887;57.196;-2.100;2023-02-01T13:10:17;11.37;;;10.97;;
22068;SDS011;13887;57.196;-2.100;2023-02-01T13:13:16;11.77;;;11.37;;
22068;SDS011;13887;57.196;-2.100;2023-02-01T13:19:20;11.13;;;10.77;;
22068;SDS011;13887;57.196;-2.100;2023-02-01T13:21:57;11.43;;;11.03;;
22068;SDS011;13887;57.196;-2.100;2023-02-01T13:24:41;12.20;;;11.80;;
22068;SDS011;13887;57.196;-2.100;2023-02-01T13:27:12;11.83;;;11.43;;
22068;SDS011;13887;57.196;-2.100;2023-02-01T13:29:57;11.37;;;10.97;;
22068;SDS011;13887;57.196;-2.100;2023-02-01T13:43:55;11.43;;;11.03;;
22068;SDS011;13887;57.196;-2.100;2023-02-01T13:46:27;11.90;;;11.50;;
22068;SDS011;13887;57.196;-2.100;2023-02-01T13:48:56;12.20;;;11.80;;
22068;SDS011;13887;57.196;-2.100;2023-02-01T13:56:59;11.83;;;11.43;;
22068;SDS011;13887;57.196;-2.100;2023-02-01T14:13:22;12.37;;;11.97;;
22068;SDS011;13887;57.196;-2.100;2023-02-01T14:24:12;12.23;;;11.83;;
22068;SDS011;13887;57.196;-2.100;2023-02-01T14:26:54;12.07;;;11.67;;
22068;SDS011;13887;57.196;-2.100;2023-02-01T14:29:29;11.70;;;11.30;;
22068;SDS011;13887;57.196;-2.100;2023-02-01T14:32:19;12.03;;;11.63;;
22068;SDS011;13887;57.196;-2.100;2023-02-01T14:34:53;11.80;;;11.40;;
22068;SDS011;13887;57.196;-2.100;2023-02-01T14:37:25;11.77;;;11.37;;
22068;SDS011;13887;57.196;-2.100;2023-02-01T14:47:52;11.90;;;11.50;;
22068;SDS011;13887;57.196;-2.100;2023-02-01T14:55:54;11.60;;;11.20;;
22068;SDS011;13887;57.196;-2.100;2023-02-01T15:06:47;11.67;;;11.27;;
22068;SDS011;13887;57.196;-2.100;2023-02-01T15:14:39;12.13;;;11.73;;
22068;SDS011;13887;57.196;-2.100;2023-02-01T15:17:20;11.90;;;11.50;;
22068;SDS011;13887;57.196;-2.100;2023-02-01T15:19:56;11.30;;;10.90;;
22068;SDS011;13887;57.196;-2.100;2023-02-01T15:22:25;11.70;;;11.30;;
22068;SDS011;13887;57.196;-2.100;2023-02-01T15:24:54;11.93;;;11.53;;
22068;SDS011;13887;57.196;-2.100;2023-02-01T15:27:23;11.53;;;11.13;;
22068;SDS011;13887;57.196;-2.100;2023-02-01T15:29:50;11.67;;;11.27;;
22068;SDS011;13887;57.196;-2.100;2023-02-01T15:32:28;11.27;;;10.87;;
22068;SDS011;13887;57.196;-2.100;2023-02-01T15:35:00;11.63;;;11.23;;
22068;SDS011;13887;57.196;-2.100;2023-02-01T15:37:28;11.37;;;10.97;;
22068;SDS011;13887;57.196;-2.100;2023-02-01T15:40:04;11.77;;;11.37;;
22068;SDS011;13887;57.196;-2.100;2023-02-01T15:42:46;11.60;;;11.20;;
22068;SDS011;13887;57.196;-2.100;2023-02-01T15:45:22;11.83;;;11.43;;
22068;SDS011;13887;57.196;-2.100;2023-02-01T15:47:54;12.03;;;11.63;;
22068;SDS011;13887;57.196;-2.100;2023-02-01T15:50:22;11.47;;;11.07;;
22068;SDS011;13887;57.196;-2.100;2023-02-01T15:52:52;12.03;;;11.63;;
22068;SDS011;13887;57.196;-2.100;2023-02-01T15:58:12;11.90;;;11.50;;
22068;SDS011;13887;57.196;-2.100;2023-02-01T16:06:07;11.47;;;11.07;;
22068;SDS011;13887;57.196;-2.100;2023-02-01T16:08:34;11.27;;;10.87;;
22068;SDS011;13887;57.196;-2.100;2023-02-01T16:13:36;11.40;;;11.00;;
22068;SDS011;13887;57.196;-2.100;2023-02-01T16:16:03;11.43;;;11.03;;
22068;SDS011;13887;57.196;-2.100;2023-02-01T16:18:34;11.10;;;10.77;;
22068;SDS011;13887;57.196;-2.100;2023-02-01T16:21:01;10.77;;;10.47;;
22068;SDS011;13887;57.196;-2.100;2023-02-01T16:23:28;10.90;;;10.60;;
22068;SDS011;13887;57.196;-2.100;2023-02-01T16:25:57;11.00;;;10.70;;
22068;SDS011;13887;57.196;-2.100;2023-02-01T16:28:24;10.77;;;10.47;;
22068;SDS011;13887;57.196;-2.100;2023-02-01T16:30:52;10.73;;;10.43;;
22068;SDS011;13887;57.196;-2.100;2023-02-01T16:33:20;10.80;;;10.50;;
22068;SDS011;13887;57.196;-2.100;2023-02-01T16:35:51;10.97;;;10.67;;
22068;SDS011;13887;57.196;-2.100;2023-02-01T16:38:23;10.50;;;10.20;;
22068;SDS011;13887;57.196;-2.100;2023-02-01T16:40:50;9.97;;;9.67;;
22068;SDS011;13887;57.196;-2.100;2023-02-01T16:43:18;10.43;;;10.13;;
22068;SDS011;13887;57.196;-2.100;2023-02-01T16:45:47;10.03;;;9.73;;
22068;SDS011;13887;57.196;-2.100;2023-02-01T16:48:22;10.53;;;10.23;;
22068;SDS011;13887;57.196;-2.100;2023-02-01T16:51:01;10.70;;;10.40;;
22068;SDS011;13887;57.196;-2.100;2023-02-01T16:53:35;10.20;;;9.90;;
22068;SDS011;13887;57.196;-2.100;2023-02-01T16:56:20;10.40;;;10.10;;
22068;SDS011;13887;57.196;-2.100;2023-02-01T16:58:50;10.37;;;10.07;;
22068;SDS011;13887;57.196;-2.100;2023-02-01T17:01:17;11.10;;;10.80;;
22068;SDS011;13887;57.196;-2.100;2023-02-01T17:03:45;11.37;;;10.97;;
22068;SDS011;13887;57.196;-2.100;2023-02-01T17:06:14;10.90;;;10.60;;
22068;SDS011;13887;57.196;-2.100;2023-02-01T17:08:53;10.90;;;10.60;;
22068;SDS011;13887;57.196;-2.100;2023-02-01T17:11:21;11.20;;;10.80;;
22068;SDS011;13887;57.196;-2.100;2023-02-01T17:13:48;10.50;;;10.20;;
22068;SDS011;13887;57.196;-2.100;2023-02-01T17:21:40;10.77;;;10.47;;
22068;SDS011;13887;57.196;-2.100;2023-02-01T17:24:11;10.97;;;10.67;;
22068;SDS011;13887;57.196;-2.100;2023-02-01T17:26:41;10.90;;;10.60;;
22068;SDS011;13887;57.196;-2.100;2023-02-01T17:29:09;10.50;;;10.20;;
22068;SDS011;13887;57.196;-2.100;2023-02-01T17:31:41;11.10;;;10.80;;
22068;SDS011;13887;57.196;-2.100;2023-02-01T17:34:11;11.67;;;11.27;;
22068;SDS011;13887;57.196;-2.100;2023-02-01T17:36:41;11.43;;;11.03;;
22068;SDS011;13887;57.196;-2.100;2023-02-01T17:39:08;10.97;;;10.67;;
22068;SDS011;13887;57.196;-2.100;2023-02-01T17:41:36;10.73;;;10.43;;
22068;SDS011;13887;57.196;-2.100;2023-02-01T17:44:03;10.37;;;10.07;;
22068;SDS011;13887;57.196;-2.100;2023-02-01T17:46:31;11.10;;;10.80;;
22068;SDS011;13887;57.196;-2.100;2023-02-01T17:48:57;11.33;;;11.03;;
22068;SDS011;13887;57.196;-2.100;2023-02-01T17:51:26;11.13;;;10.83;;
22068;SDS011;13887;57.196;-2.100;2023-02-01T17:53:54;11.07;;;10.77;;